createdAt,value
2022-07-25T00:01:47.169Z,94233.09
2022-07-25T00:04:14.569Z,94232.56
2022-07-25T00:06:42.939Z,94221.97
2022-07-25T00:09:09.883Z,94222.72
2022-07-25T00:11:36.789Z,94220.06
2022-07-25T00:14:04.583Z,94220.06
2022-07-25T00:16:32.095Z,94229.69
2022-07-25T00:18:58.996Z,94224.28
2022-07-25T00:21:26.051Z,94221.63
2022-07-25T00:23:52.817Z,94225.22
2022-07-25T00:26:19.560Z,94222.69
2022-07-25T00:28:46.278Z,94216.56
2022-07-25T00:31:13.002Z,94215.38
2022-07-25T00:33:40.384Z,94207.53
2022-07-25T00:36:08.491Z,94213.66
2022-07-25T00:38:35.330Z,94208.91
2022-07-25T00:41:03.939Z,94204.97
2022-07-25T00:43:30.881Z,94205.06
2022-07-25T00:45:59.355Z,94212.41
2022-07-25T00:48:27.756Z,94210.00
2022-07-25T00:50:55.844Z,94200.03
2022-07-25T00:53:22.750Z,94206.50
2022-07-25T00:55:49.440Z,94210.59
2022-07-25T00:58:16.664Z,94208.47
2022-07-25T01:00:43.458Z,94197.88
2022-07-25T01:03:10.919Z,94198.75
2022-07-25T01:05:37.726Z,94198.84
2022-07-25T01:08:05.193Z,94198.84
2022-07-25T01:10:33.028Z,94202.09
2022-07-25T01:12:59.843Z,94192.75
2022-07-25T01:15:26.613Z,94195.19
2022-07-25T01:17:53.855Z,94190.50
2022-07-25T01:20:23.235Z,94196.81
2022-07-25T01:22:50.245Z,94195.13
2022-07-25T01:25:17.730Z,94198.63
2022-07-25T01:27:44.608Z,94188.41
2022-07-25T01:30:14.277Z,94186.75
2022-07-25T01:32:42.322Z,94197.06
2022-07-25T01:35:10.419Z,94191.44
2022-07-25T01:37:37.084Z,94194.50
2022-07-25T01:40:04.464Z,94193.16
2022-07-25T01:42:31.174Z,94197.84
2022-07-25T01:44:58.272Z,94201.69
2022-07-25T01:47:25.183Z,94197.28
2022-07-25T01:49:51.863Z,94196.75
2022-07-25T01:52:18.828Z,94200.94
2022-07-25T01:54:45.548Z,94201.88
2022-07-25T01:57:12.602Z,94201.31
2022-07-25T01:59:40.963Z,94201.06
2022-07-25T02:02:09.218Z,94206.28
2022-07-25T02:04:36.607Z,94200.22
2022-07-25T02:07:04.334Z,94204.78
2022-07-25T02:09:32.912Z,94211.28
2022-07-25T02:11:59.732Z,94209.88
2022-07-25T02:14:26.804Z,94201.47
2022-07-25T02:16:54.026Z,94199.63
2022-07-25T02:19:20.841Z,94213.28
2022-07-25T02:21:47.578Z,94210.19
2022-07-25T02:24:14.235Z,94211.56
2022-07-25T02:26:41.075Z,94211.63
2022-07-25T02:29:07.725Z,94219.50
2022-07-25T02:31:34.536Z,94224.59
2022-07-25T02:34:01.239Z,94224.25
2022-07-25T02:36:27.883Z,94217.78
2022-07-25T02:38:54.566Z,94223.94
2022-07-25T02:41:21.213Z,94223.81
2022-07-25T02:43:47.945Z,94213.41
2022-07-25T02:46:14.714Z,94215.16
2022-07-25T02:48:41.484Z,94202.25
2022-07-25T02:51:08.279Z,94199.97
2022-07-25T02:53:55.997Z,94209.09
2022-07-25T02:56:21.572Z,94212.97
2022-07-25T02:58:48.453Z,94217.03
2022-07-25T03:01:15.326Z,94215.28
2022-07-25T03:03:42.279Z,94215.28
2022-07-25T03:06:09.096Z,94224.00
2022-07-25T03:08:35.717Z,94224.69
2022-07-25T03:11:03.193Z,94226.50
2022-07-25T03:13:29.986Z,94217.25
2022-07-25T03:15:57.061Z,94214.50
2022-07-25T03:18:23.713Z,94222.50
2022-07-25T03:20:50.376Z,94218.06
2022-07-25T03:23:17.024Z,94229.69
2022-07-25T03:25:43.728Z,94222.91
2022-07-25T03:28:10.363Z,94229.63
2022-07-25T03:30:37.077Z,94229.72
2022-07-25T03:33:03.828Z,94223.78
2022-07-25T03:35:30.522Z,94219.81
2022-07-25T03:37:57.336Z,94221.47
2022-07-25T03:40:24.038Z,94220.94
2022-07-25T03:42:50.689Z,94216.22
2022-07-25T03:45:17.971Z,94217.25
2022-07-25T03:47:44.931Z,94220.16
2022-07-25T03:50:12.188Z,94218.66
2022-07-25T03:52:38.855Z,94220.94
2022-07-25T03:55:07.875Z,94230.06
2022-07-25T03:57:34.649Z,94230.59
2022-07-25T04:00:01.516Z,94232.91
2022-07-25T04:02:28.313Z,94232.75
2022-07-25T04:04:55.052Z,94229.38
2022-07-25T04:07:21.674Z,94224.06
2022-07-25T04:09:48.395Z,94228.97
2022-07-25T04:12:15.102Z,94223.03
2022-07-25T04:14:41.815Z,94221.94
2022-07-25T04:17:08.516Z,94223.13
2022-07-25T04:19:36.337Z,94222.50
2022-07-25T04:22:03.263Z,94225.56
2022-07-25T04:24:31.211Z,94223.78
2022-07-25T04:26:57.870Z,94215.19
2022-07-25T04:29:24.541Z,94217.94
2022-07-25T04:31:51.430Z,94223.00
2022-07-25T04:34:18.151Z,94220.81
2022-07-25T04:36:44.849Z,94217.88
2022-07-25T04:39:11.597Z,94217.88
2022-07-25T04:41:38.356Z,94221.88
2022-07-25T04:44:07.626Z,94225.59
2022-07-25T04:46:34.948Z,94222.75
2022-07-25T04:49:01.814Z,94215.19
2022-07-25T04:51:28.565Z,94220.88
2022-07-25T04:53:55.235Z,94214.78
2022-07-25T04:56:21.951Z,94226.34
2022-07-25T04:58:49.396Z,94225.91
2022-07-25T05:01:16.149Z,94224.81
2022-07-25T05:03:50.374Z,94226.16
2022-07-25T05:06:18.852Z,94222.91
2022-07-25T05:08:46.002Z,94219.03
2022-07-25T05:11:12.707Z,94227.31
2022-07-25T05:13:39.315Z,94226.06
2022-07-25T05:16:06.549Z,94224.88
2022-07-25T05:18:34.777Z,94225.47
2022-07-25T05:21:01.664Z,94227.50
2022-07-25T05:23:28.359Z,94222.56
2022-07-25T05:25:55.327Z,94242.03
2022-07-25T05:28:22.008Z,94223.72
2022-07-25T05:30:48.737Z,94230.44
2022-07-25T05:33:15.452Z,94227.19
2022-07-25T05:35:43.128Z,94227.75
2022-07-25T05:38:09.830Z,94224.31
2022-07-25T05:40:36.502Z,94229.56
2022-07-25T05:43:03.775Z,94224.72
2022-07-25T05:45:32.130Z,94229.13
2022-07-25T05:47:58.777Z,94230.59
2022-07-25T05:50:25.546Z,94231.44
2022-07-25T05:52:52.204Z,94226.94
2022-07-25T05:55:19.011Z,94217.03
2022-07-25T05:57:45.845Z,94225.34
2022-07-25T06:00:13.063Z,94224.44
2022-07-25T06:02:39.789Z,94221.69
2022-07-25T06:05:06.858Z,94218.06
2022-07-25T06:07:33.634Z,94211.44
2022-07-25T06:10:00.298Z,94215.88
2022-07-25T06:12:27.034Z,94219.91
2022-07-25T06:14:54.161Z,94214.03
2022-07-25T06:17:20.919Z,94213.97
2022-07-25T06:19:47.625Z,94213.47
2022-07-25T06:22:14.677Z,94207.38
2022-07-25T06:24:41.957Z,94212.78
2022-07-25T06:27:09.023Z,94216.31
2022-07-25T06:29:35.836Z,94214.50
2022-07-25T06:32:02.953Z,94212.56
2022-07-25T06:34:29.769Z,94213.19
2022-07-25T06:37:00.156Z,94206.25
2022-07-25T06:39:28.218Z,94202.69
2022-07-25T06:41:55.123Z,94208.50
2022-07-25T06:44:21.747Z,94207.97
2022-07-25T06:46:48.476Z,94204.63
2022-07-25T06:49:17.552Z,94212.34
2022-07-25T06:51:44.301Z,94201.75
2022-07-25T06:54:11.085Z,94203.38
2022-07-25T06:56:39.510Z,94204.00
2022-07-25T06:59:06.262Z,94197.31
2022-07-25T07:01:33.253Z,94196.69
2022-07-25T07:03:59.993Z,94195.19
2022-07-25T07:06:26.722Z,94195.22
2022-07-25T07:08:53.531Z,94195.75
2022-07-25T07:11:20.228Z,94194.75
2022-07-25T07:13:46.909Z,94193.84
2022-07-25T07:16:13.689Z,94193.66
2022-07-25T07:18:40.489Z,94190.63
2022-07-25T07:21:07.342Z,94194.28
2022-07-25T07:23:34.512Z,94187.72
2022-07-25T07:26:03.434Z,94186.00
2022-07-25T07:28:30.145Z,94192.59
2022-07-25T07:31:15.807Z,94196.38
2022-07-25T07:46:11.729Z,94186.00
2022-07-25T07:48:38.768Z,94191.22
2022-07-25T07:51:06.232Z,94185.88
2022-07-25T07:53:51.711Z,94184.69
2022-07-25T07:56:21.793Z,94182.38
2022-07-25T07:58:51.300Z,94186.53
2022-07-25T08:01:18.129Z,94182.56
2022-07-25T08:03:44.981Z,94185.72
2022-07-25T08:06:11.705Z,94173.31
2022-07-25T08:08:39.097Z,94181.47
2022-07-25T08:11:05.948Z,94182.28
2022-07-25T08:13:38.164Z,94186.50
2022-07-25T08:16:05.481Z,94191.19
2022-07-25T08:18:33.124Z,94191.50
2022-07-25T08:21:03.142Z,94186.06
2022-07-25T08:23:31.888Z,94178.31
2022-07-25T08:25:59.529Z,94191.19
2022-07-25T08:28:26.321Z,94190.94
2022-07-25T08:30:53.620Z,94186.34
2022-07-25T08:33:20.595Z,94183.59
2022-07-25T08:35:54.854Z,94179.44
2022-07-25T08:38:23.904Z,94184.63
2022-07-25T08:40:51.202Z,94182.03
2022-07-25T08:56:02.487Z,94178.72
2022-07-25T08:58:49.654Z,94171.06
2022-07-25T09:01:16.727Z,94179.72
2022-07-25T09:03:44.312Z,94170.72
2022-07-25T09:06:19.614Z,94176.81
2022-07-25T09:08:59.673Z,94172.03
2022-07-25T09:11:35.300Z,94168.81
2022-07-25T09:14:06.035Z,94159.22
2022-07-25T09:16:36.563Z,94154.53
2022-07-25T09:19:18.299Z,94153.84
2022-07-25T09:21:57.845Z,94154.47
2022-07-25T09:24:26.333Z,94153.72
2022-07-25T09:26:56.990Z,94147.84
2022-07-25T09:29:30.874Z,94162.28
2022-07-25T09:31:59.152Z,94151.06
2022-07-25T09:34:34.693Z,94148.56
2022-07-25T09:37:03.309Z,94149.25
2022-07-25T09:39:46.009Z,94149.25
2022-07-25T09:42:25.929Z,94153.78
2022-07-25T09:45:01.639Z,94143.56
2022-07-25T09:47:28.686Z,94154.31
2022-07-25T09:49:56.940Z,94145.69
2022-07-25T09:52:23.926Z,94149.78
2022-07-25T09:54:50.686Z,94149.09
2022-07-25T09:57:17.491Z,94146.63
2022-07-25T09:59:44.921Z,94137.25
2022-07-25T10:02:36.562Z,94142.47
2022-07-25T10:05:14.713Z,94143.19
2022-07-25T10:07:47.551Z,94131.09
2022-07-25T10:10:30.417Z,94145.84
2022-07-25T10:13:11.868Z,94137.28
2022-07-25T10:15:41.370Z,94133.97
2022-07-25T10:18:08.485Z,94134.81
2022-07-25T10:20:35.805Z,94126.03
2022-07-25T10:23:02.846Z,94125.22
2022-07-25T10:25:29.763Z,94120.22
2022-07-25T10:28:01.359Z,94118.31
2022-07-25T10:30:39.594Z,94109.75
2022-07-25T10:33:17.752Z,94113.75
2022-07-25T10:35:45.468Z,94106.72
2022-07-25T10:38:12.219Z,94109.19
2022-07-25T10:40:40.445Z,94108.59
2022-07-25T10:43:19.497Z,94111.00
2022-07-25T10:45:54.203Z,94107.38
2022-07-25T10:48:31.959Z,94114.16
2022-07-25T10:51:10.967Z,94110.38
2022-07-25T10:53:46.419Z,94109.28
2022-07-25T10:56:14.533Z,94107.78
2022-07-25T10:58:54.488Z,94106.63
2022-07-25T11:01:24.044Z,94099.94
2022-07-25T11:03:53.352Z,94099.44
2022-07-25T11:06:40.963Z,94093.53
2022-07-25T11:09:18.646Z,94091.22
2022-07-25T11:11:48.431Z,94093.88
2022-07-25T11:14:25.494Z,94087.66
2022-07-25T11:16:56.042Z,94074.94
2022-07-25T11:19:26.868Z,94088.59
2022-07-25T11:21:56.433Z,94080.63
2022-07-25T11:24:37.605Z,94083.66
2022-07-25T11:27:09.746Z,94068.63
2022-07-25T11:29:39.977Z,94062.50
2022-07-25T11:32:11.797Z,94067.03
2022-07-25T11:34:44.674Z,94066.72
2022-07-25T11:37:12.933Z,94065.59
2022-07-25T11:39:43.996Z,94074.34
2022-07-25T11:42:16.564Z,94067.69
2022-07-25T11:44:51.884Z,94067.09
2022-07-25T11:47:33.240Z,94050.47
2022-07-25T11:50:05.328Z,94050.81
2022-07-25T11:52:35.968Z,94053.91
2022-07-25T11:55:04.259Z,94064.97
2022-07-25T11:57:33.658Z,94047.44
2022-07-25T12:00:02.765Z,94049.41
2022-07-25T12:02:36.853Z,94062.84
2022-07-25T12:05:14.859Z,94062.91
2022-07-25T12:07:44.711Z,94064.19
2022-07-25T12:10:17.088Z,94055.31
2022-07-25T12:12:43.831Z,94046.00
2022-07-25T12:15:12.510Z,94046.75
2022-07-25T12:17:39.317Z,94034.00
2022-07-25T12:20:11.234Z,94039.91
2022-07-25T12:22:37.968Z,94031.56
2022-07-25T12:25:05.054Z,94032.59
2022-07-25T12:27:31.842Z,94016.22
2022-07-25T12:29:58.523Z,94026.72
2022-07-25T12:32:30.593Z,94019.34
2022-07-25T12:34:57.272Z,94024.38
2022-07-25T12:37:25.128Z,94023.41
2022-07-25T12:39:52.195Z,94023.94
2022-07-25T12:42:19.349Z,94013.44
2022-07-25T12:44:46.381Z,94017.28
2022-07-25T12:47:13.226Z,94020.50
2022-07-25T12:49:40.190Z,94025.28
2022-07-25T12:52:07.833Z,94016.88
2022-07-25T12:54:34.977Z,94011.59
2022-07-25T12:57:01.912Z,94007.81
2022-07-25T12:59:28.554Z,94005.66
2022-07-25T13:01:55.310Z,94011.38
2022-07-25T13:04:22.100Z,94006.50
2022-07-25T13:06:48.871Z,93994.50
2022-07-25T13:09:17.288Z,93996.50
2022-07-25T13:11:44.074Z,94000.53
2022-07-25T13:14:15.345Z,93989.84
2022-07-25T13:16:43.445Z,93988.66
2022-07-25T13:19:11.664Z,93984.91
2022-07-25T13:21:38.828Z,93994.34
2022-07-25T13:24:07.189Z,93994.78
2022-07-25T13:26:34.483Z,93994.13
2022-07-25T13:29:01.758Z,93981.13
2022-07-25T13:31:28.870Z,93985.56
2022-07-25T13:33:55.913Z,93987.34
2022-07-25T13:36:22.690Z,93983.56
2022-07-25T13:38:49.349Z,93985.09
2022-07-25T13:41:15.946Z,93983.97
2022-07-25T13:43:43.268Z,93987.84
2022-07-25T13:46:10.744Z,93982.81
2022-07-25T13:48:37.835Z,93975.38
2022-07-25T13:51:04.996Z,93990.22
2022-07-25T13:53:31.961Z,93973.56
2022-07-25T13:55:59.785Z,93970.72
2022-07-25T13:58:27.128Z,93968.06
2022-07-25T14:00:54.245Z,93963.28
2022-07-25T14:07:07.874Z,93961.50
2022-07-25T14:09:34.492Z,93960.47
2022-07-25T14:12:01.118Z,93960.22
2022-07-25T14:14:27.810Z,93954.22
2022-07-25T14:16:54.596Z,93955.59
2022-07-25T14:19:21.451Z,93965.72
2022-07-25T14:21:48.150Z,93955.91
2022-07-25T14:24:14.866Z,93955.78
2022-07-25T14:26:41.607Z,93959.47
2022-07-25T14:29:11.352Z,93957.63
2022-07-25T14:31:39.754Z,93943.59
2022-07-25T14:34:06.842Z,93956.66
2022-07-25T14:36:34.691Z,93950.72
2022-07-25T14:39:02.290Z,93954.00
2022-07-25T14:41:29.027Z,93949.28
2022-07-25T14:43:55.722Z,93945.50
2022-07-25T14:46:22.552Z,93939.91
2022-07-25T14:48:49.583Z,93946.75
2022-07-25T14:51:17.810Z,93943.50
2022-07-25T14:53:44.442Z,93939.28
2022-07-25T14:56:12.330Z,93939.56
2022-07-25T14:58:39.477Z,93934.09
2022-07-25T15:01:06.628Z,93930.84
2022-07-25T15:03:33.368Z,93932.31
2022-07-25T15:06:00.406Z,93932.19
2022-07-25T15:08:27.106Z,93921.50
2022-07-25T15:10:53.749Z,93927.28
2022-07-25T15:13:31.176Z,93918.31
2022-07-25T15:15:58.937Z,93927.84
2022-07-25T15:18:25.711Z,93931.91
2022-07-25T15:20:52.494Z,93926.72
2022-07-25T15:23:21.165Z,93928.09
2022-07-25T15:26:04.618Z,93918.94
2022-07-25T15:28:36.796Z,93903.38
2022-07-25T15:31:04.719Z,93914.72
2022-07-25T15:33:31.626Z,93911.19
2022-07-25T15:35:58.595Z,93914.53
2022-07-25T15:38:25.691Z,93913.91
2022-07-25T15:40:52.639Z,93907.81
2022-07-25T15:43:19.333Z,93904.84
2022-07-25T15:45:46.982Z,93903.50
2022-07-25T15:48:15.299Z,93914.03
2022-07-25T15:50:44.648Z,93906.66
2022-07-25T15:53:12.132Z,93920.44
2022-07-25T15:55:40.190Z,93918.91
2022-07-25T15:58:07.711Z,93914.28
2022-07-25T16:00:34.439Z,93914.56
2022-07-25T16:03:01.553Z,93920.31
2022-07-25T16:05:28.606Z,93913.72
2022-07-25T16:07:55.706Z,93915.50
2022-07-25T16:10:22.939Z,93924.22
2022-07-25T16:12:49.658Z,93925.72
2022-07-25T16:15:16.392Z,93918.53
2022-07-25T16:17:43.089Z,93920.31
2022-07-25T16:20:10.449Z,93921.69
2022-07-25T16:22:37.707Z,93924.31
2022-07-25T16:25:04.789Z,93919.16
2022-07-25T16:27:31.632Z,93919.44
2022-07-25T16:29:58.815Z,93922.75
2022-07-25T16:32:25.525Z,93921.63
2022-07-25T16:34:52.408Z,93917.03
2022-07-25T16:37:20.487Z,93924.88
2022-07-25T16:39:47.159Z,93921.19
2022-07-25T16:42:13.836Z,93923.84
2022-07-25T16:44:40.537Z,93928.97
2022-07-25T16:47:07.638Z,93925.59
2022-07-25T16:49:34.310Z,93924.63
2022-07-25T16:52:00.973Z,93923.59
2022-07-25T16:54:27.730Z,93925.00
2022-07-25T16:56:58.308Z,93927.66
2022-07-25T16:59:26.228Z,93922.38
2022-07-25T17:01:52.969Z,93922.41
2022-07-25T17:04:19.737Z,93922.84
2022-07-25T17:06:46.623Z,93922.16
2022-07-25T17:09:13.418Z,93931.72
2022-07-25T17:11:40.128Z,93930.63
2022-07-25T17:14:06.781Z,93928.38
2022-07-25T17:16:33.622Z,93931.50
2022-07-25T17:19:02.441Z,93923.44
2022-07-25T17:21:29.153Z,93923.97
2022-07-25T17:23:56.622Z,93924.59
2022-07-25T17:26:23.687Z,93933.50
2022-07-25T17:28:50.650Z,93935.19
2022-07-25T17:31:17.399Z,93922.97
2022-07-25T17:33:44.136Z,93932.28
2022-07-25T17:36:10.826Z,93927.75
2022-07-25T17:38:38.065Z,93927.44
2022-07-25T17:41:04.977Z,93937.25
2022-07-25T17:43:31.930Z,93938.09
2022-07-25T17:45:58.649Z,93945.88
2022-07-25T17:48:25.362Z,93943.84
2022-07-25T17:50:52.561Z,93939.03
2022-07-25T17:53:19.382Z,93946.69
2022-07-25T17:55:46.159Z,93949.56
2022-07-25T17:58:13.138Z,93950.72
2022-07-25T18:00:40.255Z,93952.25
2022-07-25T18:03:07.472Z,93957.44
2022-07-25T18:05:34.970Z,93958.69
2022-07-25T18:08:03.113Z,93968.03
2022-07-25T18:10:30.191Z,93967.28
2022-07-25T18:12:57.098Z,93965.94
2022-07-25T18:15:23.836Z,93964.97
2022-07-25T18:17:50.524Z,93961.94
2022-07-25T18:20:17.684Z,93959.97
2022-07-25T18:22:45.403Z,93967.84
2022-07-25T18:25:14.159Z,93973.13
2022-07-25T18:27:42.751Z,93964.97
2022-07-25T18:30:10.671Z,93974.22
2022-07-25T18:32:37.941Z,93967.09
2022-07-25T18:35:05.696Z,93968.41
2022-07-25T18:37:32.383Z,93972.47
2022-07-25T18:39:59.043Z,93976.19
2022-07-25T18:42:29.640Z,93974.66
2022-07-25T18:44:56.663Z,93981.31
2022-07-25T18:47:26.295Z,93977.19
2022-07-25T18:49:59.093Z,93977.50
2022-07-25T18:52:25.900Z,93981.50
2022-07-25T18:54:52.646Z,93993.91
2022-07-25T18:57:19.373Z,93993.94
2022-07-25T18:59:46.157Z,93991.47
2022-07-25T19:02:12.972Z,94000.78
2022-07-25T19:04:39.747Z,93996.50
2022-07-25T19:07:07.794Z,94000.47
2022-07-25T19:09:34.993Z,94005.03
2022-07-25T19:12:01.775Z,94012.63
2022-07-25T19:14:30.570Z,94012.38
2022-07-25T19:16:58.214Z,94022.41
2022-07-25T19:19:26.096Z,94019.34
2022-07-25T19:21:52.947Z,94017.47
2022-07-25T19:24:19.782Z,94023.19
2022-07-25T19:26:48.228Z,94025.34
2022-07-25T19:29:16.651Z,94029.63
2022-07-25T19:31:43.926Z,94033.72
2022-07-25T19:34:11.322Z,94027.50
2022-07-25T19:36:38.515Z,94034.47
2022-07-25T19:39:06.361Z,94028.91
2022-07-25T19:41:33.470Z,94031.94
2022-07-25T19:44:00.185Z,94033.00
2022-07-25T19:46:31.171Z,94030.53
2022-07-25T19:48:58.433Z,94028.97
2022-07-25T19:51:25.317Z,94030.91
2022-07-25T19:53:52.007Z,94027.94
2022-07-25T19:56:18.718Z,94029.16
2022-07-25T19:58:45.430Z,94033.28
2022-07-25T20:01:12.737Z,94026.81
2022-07-25T20:03:40.131Z,94031.25
2022-07-25T20:06:08.602Z,94031.06
2022-07-25T20:08:36.932Z,94028.31
2022-07-25T20:11:03.686Z,94022.81
2022-07-25T20:13:30.511Z,94026.09
2022-07-25T20:15:58.635Z,94026.25
2022-07-25T20:18:25.488Z,94020.31
2022-07-25T20:20:52.325Z,94023.41
2022-07-25T20:23:19.089Z,94020.66
2022-07-25T20:25:46.114Z,94022.91
2022-07-25T20:28:16.130Z,94023.16
2022-07-25T20:30:43.443Z,94023.72
2022-07-25T20:33:10.574Z,94021.88
2022-07-25T20:35:38.547Z,94021.97
2022-07-25T20:38:10.028Z,94020.84
2022-07-25T20:40:46.273Z,94022.00
2022-07-25T20:43:15.148Z,94015.53
2022-07-25T20:45:41.897Z,94025.84
2022-07-25T20:48:11.288Z,94019.22
2022-07-25T20:50:42.533Z,94016.66
2022-07-25T20:53:09.538Z,94023.50
2022-07-25T20:55:36.786Z,94021.44
2022-07-25T20:58:04.222Z,94016.72
2022-07-25T21:00:31.380Z,94026.34
2022-07-25T21:03:02.120Z,94020.09
2022-07-25T21:05:29.299Z,94018.84
2022-07-25T21:07:56.201Z,94022.69
2022-07-25T21:10:23.427Z,94019.34
2022-07-25T21:12:51.342Z,94022.53
2022-07-25T21:15:21.351Z,94025.44
2022-07-25T21:17:48.075Z,94018.28
2022-07-25T21:20:15.881Z,94021.91
2022-07-25T21:22:43.890Z,94018.09
2022-07-25T21:25:13.463Z,94022.97
2022-07-25T21:27:40.454Z,94017.63
2022-07-25T21:30:12.258Z,94012.88
2022-07-25T21:32:40.733Z,94015.41
2022-07-25T21:35:07.854Z,94019.22
2022-07-25T21:37:36.461Z,94021.00
2022-07-25T21:40:03.716Z,94020.63
2022-07-25T21:42:30.547Z,94021.03
2022-07-25T21:44:57.234Z,94015.50
2022-07-25T21:47:23.923Z,94020.19
2022-07-25T21:50:09.396Z,94014.03
2022-07-25T21:52:36.312Z,94011.31
2022-07-25T21:55:04.554Z,94013.03
2022-07-25T21:57:32.117Z,94008.84
2022-07-25T21:59:58.931Z,94013.53
2022-07-25T22:02:31.600Z,94015.41
2022-07-25T22:04:58.256Z,94013.06
2022-07-25T22:07:25.358Z,94010.41
2022-07-25T22:09:52.085Z,94007.53
2022-07-25T22:12:18.947Z,93997.25
2022-07-25T22:14:45.684Z,93998.28
2022-07-25T22:17:13.697Z,94000.38
2022-07-25T22:19:41.129Z,93999.06
2022-07-25T22:22:07.980Z,93995.50
2022-07-25T22:24:34.846Z,93992.78
2022-07-25T22:27:04.488Z,93993.84
2022-07-25T22:29:31.162Z,93986.47
2022-07-25T22:31:58.075Z,94001.97
2022-07-25T22:34:24.989Z,94001.81
2022-07-25T22:36:51.717Z,93997.94
2022-07-25T22:39:18.588Z,94006.22
2022-07-25T22:41:46.258Z,94003.03
2022-07-25T22:44:12.932Z,94004.66
2022-07-25T22:46:39.660Z,93995.53
2022-07-25T22:49:06.851Z,94002.63
2022-07-25T22:51:34.191Z,94006.00
2022-07-25T22:54:01.616Z,94007.63
2022-07-25T22:56:28.918Z,94004.16
2022-07-25T22:58:55.628Z,94011.66
2022-07-25T23:01:23.061Z,94005.97
2022-07-25T23:03:50.508Z,94010.34
2022-07-25T23:06:19.540Z,93997.47
2022-07-25T23:08:47.006Z,93998.75
2022-07-25T23:11:13.652Z,93988.75
2022-07-25T23:13:40.385Z,93994.81
2022-07-25T23:16:10.058Z,93985.69
2022-07-25T23:18:37.967Z,93986.16
2022-07-25T23:21:04.736Z,93978.38
2022-07-25T23:23:31.640Z,93980.78
2022-07-25T23:25:58.465Z,93968.44
2022-07-25T23:28:25.164Z,93975.63
2022-07-25T23:30:51.860Z,93980.78
2022-07-25T23:33:18.574Z,93971.06
2022-07-25T23:35:52.553Z,93979.25
2022-07-25T23:38:19.252Z,93978.19
2022-07-25T23:40:46.113Z,93972.59
2022-07-25T23:43:13.738Z,93976.19
2022-07-25T23:45:46.480Z,93976.63
2022-07-25T23:48:15.170Z,93975.94
2022-07-25T23:50:41.852Z,93986.47
2022-07-25T23:53:08.716Z,93981.34
2022-07-25T23:55:35.458Z,93987.13
2022-07-25T23:58:02.097Z,93978.13
